sensor_id;sensor_type;location;lat;lon;timestamp;temperature;humidity
23755;DHT22;12057;52.042;6.830;2023-07-09T00:00:16;25.50;83.50
23755;DHT22;12057;52.042;6.830;2023-07-09T00:05:17;25.40;82.70
23755;DHT22;12057;52.042;6.830;2023-07-09T00:10:20;25.40;83.30
23755;DHT22;12057;52.042;6.830;2023-07-09T00:15:22;25.30;83.00
23755;DHT22;12057;52.042;6.830;2023-07-09T00:20:22;25.30;83.10
23755;DHT22;12057;52.042;6.830;2023-07-09T00:25:23;25.20;84.50
23755;DHT22;12057;52.042;6.830;2023-07-09T00:30:25;25.20;84.40
23755;DHT22;12057;52.042;6.830;2023-07-09T00:35:26;25.10;84.50
23755;DHT22;12057;52.042;6.830;2023-07-09T00:40:26;25.10;85.20
23755;DHT22;12057;52.042;6.830;2023-07-09T00:45:27;25.00;87.00
23755;DHT22;12057;52.042;6.830;2023-07-09T00:50:50;24.90;88.00
23755;DHT22;12057;52.042;6.830;2023-07-09T00:56:06;24.80;88.80
23755;DHT22;12057;52.042;6.830;2023-07-09T01:01:13;24.70;89.00
23755;DHT22;12057;52.042;6.830;2023-07-09T01:06:20;24.70;89.30
23755;DHT22;12057;52.042;6.830;2023-07-09T01:11:23;24.70;87.30
23755;DHT22;12057;52.042;6.830;2023-07-09T01:16:28;24.70;87.50
23755;DHT22;12057;52.042;6.830;2023-07-09T01:21:30;24.60;87.10
23755;DHT22;12057;52.042;6.830;2023-07-09T01:26:31;24.60;88.90
23755;DHT22;12057;52.042;6.830;2023-07-09T01:31:32;24.60;87.70
23755;DHT22;12057;52.042;6.830;2023-07-09T01:36:33;24.50;88.10
23755;DHT22;12057;52.042;6.830;2023-07-09T01:41:33;24.50;87.50
23755;DHT22;12057;52.042;6.830;2023-07-09T01:46:34;24.50;87.30
23755;DHT22;12057;52.042;6.830;2023-07-09T01:51:35;24.50;87.90
23755;DHT22;12057;52.042;6.830;2023-07-09T01:56:36;24.40;88.30
23755;DHT22;12057;52.042;6.830;2023-07-09T02:01:39;24.30;88.40
23755;DHT22;12057;52.042;6.830;2023-07-09T02:06:39;24.30;89.60
23755;DHT22;12057;52.042;6.830;2023-07-09T02:11:40;24.20;89.80
23755;DHT22;12057;52.042;6.830;2023-07-09T02:16:41;24.10;89.50
23755;DHT22;12057;52.042;6.830;2023-07-09T02:21:42;24.10;90.00
23755;DHT22;12057;52.042;6.830;2023-07-09T02:26:43;24.00;89.90
23755;DHT22;12057;52.042;6.830;2023-07-09T02:31:45;24.00;90.70
23755;DHT22;12057;52.042;6.830;2023-07-09T02:36:46;23.90;91.00
23755;DHT22;12057;52.042;6.830;2023-07-09T02:41:48;23.90;90.90
23755;DHT22;12057;52.042;6.830;2023-07-09T02:46:49;23.80;90.70
23755;DHT22;12057;52.042;6.830;2023-07-09T02:51:49;23.70;91.70
23755;DHT22;12057;52.042;6.830;2023-07-09T02:56:50;23.70;92.80
23755;DHT22;12057;52.042;6.830;2023-07-09T03:01:52;23.70;93.40
23755;DHT22;12057;52.042;6.830;2023-07-09T03:06:52;23.70;92.80
23755;DHT22;12057;52.042;6.830;2023-07-09T03:11:53;23.70;93.20
23755;DHT22;12057;52.042;6.830;2023-07-09T03:16:54;23.70;93.10
23755;DHT22;12057;52.042;6.830;2023-07-09T03:21:56;23.70;93.50
23755;DHT22;12057;52.042;6.830;2023-07-09T03:26:57;23.70;94.00
23755;DHT22;12057;52.042;6.830;2023-07-09T03:31:57;23.70;93.70
23755;DHT22;12057;52.042;6.830;2023-07-09T03:36:58;23.70;94.20
23755;DHT22;12057;52.042;6.830;2023-07-09T03:41:59;23.80;94.30
23755;DHT22;12057;52.042;6.830;2023-07-09T03:47:00;23.70;94.20
23755;DHT22;12057;52.042;6.830;2023-07-09T03:52:01;23.60;94.40
23755;DHT22;12057;52.042;6.830;2023-07-09T03:57:02;23.60;94.60
23755;DHT22;12057;52.042;6.830;2023-07-09T04:02:03;23.70;94.80
23755;DHT22;12057;52.042;6.830;2023-07-09T04:07:04;23.60;94.70
23755;DHT22;12057;52.042;6.830;2023-07-09T04:12:05;23.60;95.00
23755;DHT22;12057;52.042;6.830;2023-07-09T04:17:06;23.60;95.00
23755;DHT22;12057;52.042;6.830;2023-07-09T04:22:07;23.60;95.30
23755;DHT22;12057;52.042;6.830;2023-07-09T04:27:08;23.50;95.50
23755;DHT22;12057;52.042;6.830;2023-07-09T04:32:12;23.60;95.30
23755;DHT22;12057;52.042;6.830;2023-07-09T04:37:13;23.60;95.00
23755;DHT22;12057;52.042;6.830;2023-07-09T04:42:16;23.60;96.70
23755;DHT22;12057;52.042;6.830;2023-07-09T04:47:18;23.60;95.90
23755;DHT22;12057;52.042;6.830;2023-07-09T04:52:18;23.80;95.60
23755;DHT22;12057;52.042;6.830;2023-07-09T04:57:19;23.90;96.10
23755;DHT22;12057;52.042;6.830;2023-07-09T05:02:20;24.00;95.60
23755;DHT22;12057;52.042;6.830;2023-07-09T05:07:21;24.00;95.70
23755;DHT22;12057;52.042;6.830;2023-07-09T05:12:25;24.00;95.50
23755;DHT22;12057;52.042;6.830;2023-07-09T05:17:26;24.20;95.90
23755;DHT22;12057;52.042;6.830;2023-07-09T05:22:27;24.20;95.80
23755;DHT22;12057;52.042;6.830;2023-07-09T05:27:28;24.20;95.60
23755;DHT22;12057;52.042;6.830;2023-07-09T05:32:28;24.20;95.60
23755;DHT22;12057;52.042;6.830;2023-07-09T05:37:30;24.40;95.60
23755;DHT22;12057;52.042;6.830;2023-07-09T05:42:31;24.50;95.30
23755;DHT22;12057;52.042;6.830;2023-07-09T05:47:32;24.70;95.60
23755;DHT22;12057;52.042;6.830;2023-07-09T05:52:33;24.90;95.50
23755;DHT22;12057;52.042;6.830;2023-07-09T05:57:34;25.00;95.40
23755;DHT22;12057;52.042;6.830;2023-07-09T06:02:35;25.20;95.60
23755;DHT22;12057;52.042;6.830;2023-07-09T06:07:35;25.50;95.90
23755;DHT22;12057;52.042;6.830;2023-07-09T06:12:43;25.90;95.30
23755;DHT22;12057;52.042;6.830;2023-07-09T06:17:44;26.10;94.50
23755;DHT22;12057;52.042;6.830;2023-07-09T06:22:45;26.30;94.10
23755;DHT22;12057;52.042;6.830;2023-07-09T06:27:46;26.50;94.40
23755;DHT22;12057;52.042;6.830;2023-07-09T06:32:47;26.60;94.30
23755;DHT22;12057;52.042;6.830;2023-07-09T06:37:47;26.90;94.30
23755;DHT22;12057;52.042;6.830;2023-07-09T06:42:48;27.30;93.90
23755;DHT22;12057;52.042;6.830;2023-07-09T06:47:49;27.40;93.50
23755;DHT22;12057;52.042;6.830;2023-07-09T06:52:50;27.60;92.90
23755;DHT22;12057;52.042;6.830;2023-07-09T06:57:52;27.80;93.40
23755;DHT22;12057;52.042;6.830;2023-07-09T07:02:52;27.70;93.30
23755;DHT22;12057;52.042;6.830;2023-07-09T07:07:56;27.80;93.70
23755;DHT22;12057;52.042;6.830;2023-07-09T07:12:57;28.10;93.20
23755;DHT22;12057;52.042;6.830;2023-07-09T07:17:58;28.20;93.50
23755;DHT22;12057;52.042;6.830;2023-07-09T07:22:59;28.40;93.60
23755;DHT22;12057;52.042;6.830;2023-07-09T07:28:00;28.90;92.90
23755;DHT22;12057;52.042;6.830;2023-07-09T07:33:01;29.30;93.30
23755;DHT22;12057;52.042;6.830;2023-07-09T07:38:02;29.50;92.60
23755;DHT22;12057;52.042;6.830;2023-07-09T07:43:03;29.70;92.30
23755;DHT22;12057;52.042;6.830;2023-07-09T07:48:04;29.90;92.20
23755;DHT22;12057;52.042;6.830;2023-07-09T07:53:05;29.90;91.50
23755;DHT22;12057;52.042;6.830;2023-07-09T07:58:05;30.40;91.30
23755;DHT22;12057;52.042;6.830;2023-07-09T08:03:06;30.70;90.90
23755;DHT22;12057;52.042;6.830;2023-07-09T08:08:07;31.00;91.20
23755;DHT22;12057;52.042;6.830;2023-07-09T08:13:07;31.20;89.80
23755;DHT22;12057;52.042;6.830;2023-07-09T08:18:08;31.50;90.60
23755;DHT22;12057;52.042;6.830;2023-07-09T08:23:09;32.00;89.40
23755;DHT22;12057;52.042;6.830;2023-07-09T08:28:09;32.20;89.80
23755;DHT22;12057;52.042;6.830;2023-07-09T08:33:10;32.20;84.70
23755;DHT22;12057;52.042;6.830;2023-07-09T08:38:11;32.40;86.60
23755;DHT22;12057;52.042;6.830;2023-07-09T08:43:21;32.60;85.80
23755;DHT22;12057;52.042;6.830;2023-07-09T08:48:35;32.90;85.30
23755;DHT22;12057;52.042;6.830;2023-07-09T08:53:51;33.40;85.00
23755;DHT22;12057;52.042;6.830;2023-07-09T08:58:55;33.20;85.30
23755;DHT22;12057;52.042;6.830;2023-07-09T09:04:38;33.40;84.60
23755;DHT22;12057;52.042;6.830;2023-07-09T09:09:44;33.70;84.70
23755;DHT22;12057;52.042;6.830;2023-07-09T09:14:57;33.80;82.10
23755;DHT22;12057;52.042;6.830;2023-07-09T09:20:17;34.00;81.10
23755;DHT22;12057;52.042;6.830;2023-07-09T09:25:31;33.90;79.70
23755;DHT22;12057;52.042;6.830;2023-07-09T09:30:32;34.20;81.80
23755;DHT22;12057;52.042;6.830;2023-07-09T09:35:34;34.90;80.50
23755;DHT22;12057;52.042;6.830;2023-07-09T09:40:35;34.70;79.60
23755;DHT22;12057;52.042;6.830;2023-07-09T09:45:38;35.30;77.50
23755;DHT22;12057;52.042;6.830;2023-07-09T09:50:40;35.50;77.50
23755;DHT22;12057;52.042;6.830;2023-07-09T09:55:41;35.50;75.50
23755;DHT22;12057;52.042;6.830;2023-07-09T10:00:48;35.70;76.20
23755;DHT22;12057;52.042;6.830;2023-07-09T10:05:55;35.80;77.10
23755;DHT22;12057;52.042;6.830;2023-07-09T10:11:51;35.90;76.20
23755;DHT22;12057;52.042;6.830;2023-07-09T10:16:41;35.50;76.10
23755;DHT22;12057;52.042;6.830;2023-07-09T10:21:57;35.70;73.90
23755;DHT22;12057;52.042;6.830;2023-07-09T10:27:17;36.10;74.90
23755;DHT22;12057;52.042;6.830;2023-07-09T10:42:54;36.10;70.50
23755;DHT22;12057;52.042;6.830;2023-07-09T10:48:14;36.40;70.70
23755;DHT22;12057;52.042;6.830;2023-07-09T10:53:43;36.40;72.20
23755;DHT22;12057;52.042;6.830;2023-07-09T11:04:53;37.00;70.90
23755;DHT22;12057;52.042;6.830;2023-07-09T11:09:53;37.30;68.90
23755;DHT22;12057;52.042;6.830;2023-07-09T11:15:10;36.80;67.10
23755;DHT22;12057;52.042;6.830;2023-07-09T11:20:20;37.40;65.40
23755;DHT22;12057;52.042;6.830;2023-07-09T11:25:42;37.10;65.90
23755;DHT22;12057;52.042;6.830;2023-07-09T11:30:54;37.10;65.90
23755;DHT22;12057;52.042;6.830;2023-07-09T11:36:13;36.30;66.70
23755;DHT22;12057;52.042;6.830;2023-07-09T11:41:40;37.20;65.40
23755;DHT22;12057;52.042;6.830;2023-07-09T11:52:28;37.50;66.80
23755;DHT22;12057;52.042;6.830;2023-07-09T11:57:31;37.80;63.30
23755;DHT22;12057;52.042;6.830;2023-07-09T12:02:33;37.40;60.90
23755;DHT22;12057;52.042;6.830;2023-07-09T12:07:35;37.90;64.60
23755;DHT22;12057;52.042;6.830;2023-07-09T12:12:36;38.20;61.70
23755;DHT22;12057;52.042;6.830;2023-07-09T12:17:42;37.70;62.10
23755;DHT22;12057;52.042;6.830;2023-07-09T12:22:42;38.20;63.30
23755;DHT22;12057;52.042;6.830;2023-07-09T12:27:43;38.30;60.30
23755;DHT22;12057;52.042;6.830;2023-07-09T12:32:48;38.60;60.90
23755;DHT22;12057;52.042;6.830;2023-07-09T12:37:56;39.10;61.50
23755;DHT22;12057;52.042;6.830;2023-07-09T12:42:59;38.70;59.60
23755;DHT22;12057;52.042;6.830;2023-07-09T12:47:59;38.50;59.20
23755;DHT22;12057;52.042;6.830;2023-07-09T12:53:03;38.50;59.90
23755;DHT22;12057;52.042;6.830;2023-07-09T12:58:09;37.70;59.70
23755;DHT22;12057;52.042;6.830;2023-07-09T13:03:13;37.90;62.80
23755;DHT22;12057;52.042;6.830;2023-07-09T13:08:15;38.00;64.10
23755;DHT22;12057;52.042;6.830;2023-07-09T13:13:17;37.90;64.10
23755;DHT22;12057;52.042;6.830;2023-07-09T13:18:21;37.80;59.00
23755;DHT22;12057;52.042;6.830;2023-07-09T13:23:26;38.00;59.40
23755;DHT22;12057;52.042;6.830;2023-07-09T13:28:31;38.40;63.10
23755;DHT22;12057;52.042;6.830;2023-07-09T13:33:32;37.90;59.00
23755;DHT22;12057;52.042;6.830;2023-07-09T13:38:33;37.90;59.90
23755;DHT22;12057;52.042;6.830;2023-07-09T13:43:36;38.00;60.70
23755;DHT22;12057;52.042;6.830;2023-07-09T13:48:39;37.70;61.40
23755;DHT22;12057;52.042;6.830;2023-07-09T13:53:40;37.40;60.80
23755;DHT22;12057;52.042;6.830;2023-07-09T13:58:41;37.30;62.70
23755;DHT22;12057;52.042;6.830;2023-07-09T14:03:42;37.50;67.50
23755;DHT22;12057;52.042;6.830;2023-07-09T14:08:43;36.80;62.80
23755;DHT22;12057;52.042;6.830;2023-07-09T14:13:46;36.80;61.60
23755;DHT22;12057;52.042;6.830;2023-07-09T14:18:47;37.10;63.40
23755;DHT22;12057;52.042;6.830;2023-07-09T14:23:48;37.50;62.50
23755;DHT22;12057;52.042;6.830;2023-07-09T14:28:49;37.40;64.10
23755;DHT22;12057;52.042;6.830;2023-07-09T14:33:50;36.90;61.20
23755;DHT22;12057;52.042;6.830;2023-07-09T14:38:50;36.70;63.80
23755;DHT22;12057;52.042;6.830;2023-07-09T14:43:54;36.70;65.10
23755;DHT22;12057;52.042;6.830;2023-07-09T14:48:58;36.20;66.30
23755;DHT22;12057;52.042;6.830;2023-07-09T14:53:58;35.90;67.00
23755;DHT22;12057;52.042;6.830;2023-07-09T14:58:59;35.50;67.30
23755;DHT22;12057;52.042;6.830;2023-07-09T15:04:29;35.40;67.10
23755;DHT22;12057;52.042;6.830;2023-07-09T15:09:28;35.10;69.00
23755;DHT22;12057;52.042;6.830;2023-07-09T15:14:30;34.90;73.90
23755;DHT22;12057;52.042;6.830;2023-07-09T15:19:30;34.70;74.70
23755;DHT22;12057;52.042;6.830;2023-07-09T15:24:33;34.40;76.60
23755;DHT22;12057;52.042;6.830;2023-07-09T15:29:35;34.20;78.30
23755;DHT22;12057;52.042;6.830;2023-07-09T15:34:35;34.00;79.10
23755;DHT22;12057;52.042;6.830;2023-07-09T15:39:36;32.30;81.40
23755;DHT22;12057;52.042;6.830;2023-07-09T15:44:37;29.80;89.40
23755;DHT22;12057;52.042;6.830;2023-07-09T15:49:38;27.20;99.10
23755;DHT22;12057;52.042;6.830;2023-07-09T15:54:40;26.00;99.90
23755;DHT22;12057;52.042;6.830;2023-07-09T15:59:41;25.60;99.90
23755;DHT22;12057;52.042;6.830;2023-07-09T16:04:42;25.50;99.90
23755;DHT22;12057;52.042;6.830;2023-07-09T16:09:44;25.60;99.90
23755;DHT22;12057;52.042;6.830;2023-07-09T16:14:45;25.60;99.90
23755;DHT22;12057;52.042;6.830;2023-07-09T16:19:46;25.60;99.90
23755;DHT22;12057;52.042;6.830;2023-07-09T16:24:48;25.70;99.90
23755;DHT22;12057;52.042;6.830;2023-07-09T16:29:49;25.70;99.90
23755;DHT22;12057;52.042;6.830;2023-07-09T16:34:50;25.90;99.90
23755;DHT22;12057;52.042;6.830;2023-07-09T16:39:51;25.60;99.90
23755;DHT22;12057;52.042;6.830;2023-07-09T16:44:52;25.20;99.90
23755;DHT22;12057;52.042;6.830;2023-07-09T16:49:52;25.20;99.90
23755;DHT22;12057;52.042;6.830;2023-07-09T16:54:53;25.00;99.90
23755;DHT22;12057;52.042;6.830;2023-07-09T17:05:14;25.40;99.90
23755;DHT22;12057;52.042;6.830;2023-07-09T17:10:15;25.50;99.90
23755;DHT22;12057;52.042;6.830;2023-07-09T17:20:24;25.60;99.90
23755;DHT22;12057;52.042;6.830;2023-07-09T17:30:32;25.40;99.90
23755;DHT22;12057;52.042;6.830;2023-07-09T17:35:41;25.40;99.90
23755;DHT22;12057;52.042;6.830;2023-07-09T17:40:45;25.50;99.90
23755;DHT22;12057;52.042;6.830;2023-07-09T17:45:46;25.60;99.90
23755;DHT22;12057;52.042;6.830;2023-07-09T17:50:47;25.60;99.90
23755;DHT22;12057;52.042;6.830;2023-07-09T17:55:48;25.70;99.90
23755;DHT22;12057;52.042;6.830;2023-07-09T18:00:53;25.60;99.90
23755;DHT22;12057;52.042;6.830;2023-07-09T18:05:55;25.70;99.90
23755;DHT22;12057;52.042;6.830;2023-07-09T18:10:57;25.60;99.90
23755;DHT22;12057;52.042;6.830;2023-07-09T18:15:58;25.80;99.90
23755;DHT22;12057;52.042;6.830;2023-07-09T18:20:59;25.80;99.90
23755;DHT22;12057;52.042;6.830;2023-07-09T18:26:00;25.90;99.90
23755;DHT22;12057;52.042;6.830;2023-07-09T18:31:00;25.90;99.90
23755;DHT22;12057;52.042;6.830;2023-07-09T18:36:01;25.80;99.90
23755;DHT22;12057;52.042;6.830;2023-07-09T18:41:11;25.80;99.90
23755;DHT22;12057;52.042;6.830;2023-07-09T18:46:13;25.70;99.90
23755;DHT22;12057;52.042;6.830;2023-07-09T18:51:14;25.60;99.90
23755;DHT22;12057;52.042;6.830;2023-07-09T18:56:16;25.50;99.90
23755;DHT22;12057;52.042;6.830;2023-07-09T19:01:20;25.50;99.90
23755;DHT22;12057;52.042;6.830;2023-07-09T19:06:23;25.50;99.90
23755;DHT22;12057;52.042;6.830;2023-07-09T19:11:24;25.40;99.90
23755;DHT22;12057;52.042;6.830;2023-07-09T19:16:26;25.40;99.90
23755;DHT22;12057;52.042;6.830;2023-07-09T19:21:29;25.40;99.90
23755;DHT22;12057;52.042;6.830;2023-07-09T19:26:30;25.40;99.90
23755;DHT22;12057;52.042;6.830;2023-07-09T19:31:31;25.20;99.90
23755;DHT22;12057;52.042;6.830;2023-07-09T19:36:32;25.10;99.90
23755;DHT22;12057;52.042;6.830;2023-07-09T19:41:33;25.10;99.90
23755;DHT22;12057;52.042;6.830;2023-07-09T19:46:34;25.00;99.90
23755;DHT22;12057;52.042;6.830;2023-07-09T19:51:34;25.00;99.90
23755;DHT22;12057;52.042;6.830;2023-07-09T19:56:35;25.00;99.90
23755;DHT22;12057;52.042;6.830;2023-07-09T20:01:36;25.00;99.90
23755;DHT22;12057;52.042;6.830;2023-07-09T20:06:37;24.90;99.90
23755;DHT22;12057;52.042;6.830;2023-07-09T20:11:40;24.90;99.90
23755;DHT22;12057;52.042;6.830;2023-07-09T20:16:42;24.70;99.90
23755;DHT22;12057;52.042;6.830;2023-07-09T20:21:44;24.80;99.90
23755;DHT22;12057;52.042;6.830;2023-07-09T20:26:46;24.70;99.90
23755;DHT22;12057;52.042;6.830;2023-07-09T20:31:48;24.60;99.90
23755;DHT22;12057;52.042;6.830;2023-07-09T20:36:50;24.50;99.90
23755;DHT22;12057;52.042;6.830;2023-07-09T20:41:52;24.50;99.90
23755;DHT22;12057;52.042;6.830;2023-07-09T20:46:53;24.60;99.90
23755;DHT22;12057;52.042;6.830;2023-07-09T20:51:54;24.50;99.90
23755;DHT22;12057;52.042;6.830;2023-07-09T20:56:56;24.40;99.90
23755;DHT22;12057;52.042;6.830;2023-07-09T21:01:57;24.30;99.90
23755;DHT22;12057;52.042;6.830;2023-07-09T21:06:58;24.30;99.90
23755;DHT22;12057;52.042;6.830;2023-07-09T21:11:59;24.30;99.90
23755;DHT22;12057;52.042;6.830;2023-07-09T21:17:00;24.20;99.90
23755;DHT22;12057;52.042;6.830;2023-07-09T21:22:02;24.10;99.90
23755;DHT22;12057;52.042;6.830;2023-07-09T21:27:04;24.00;99.90
23755;DHT22;12057;52.042;6.830;2023-07-09T21:32:11;23.90;99.90
23755;DHT22;12057;52.042;6.830;2023-07-09T21:37:20;24.10;99.90
23755;DHT22;12057;52.042;6.830;2023-07-09T21:42:21;23.90;99.90
23755;DHT22;12057;52.042;6.830;2023-07-09T21:47:21;23.80;99.90
23755;DHT22;12057;52.042;6.830;2023-07-09T21:52:23;23.80;99.90
23755;DHT22;12057;52.042;6.830;2023-07-09T21:57:24;23.80;99.90
23755;DHT22;12057;52.042;6.830;2023-07-09T22:02:28;23.90;99.90
23755;DHT22;12057;52.042;6.830;2023-07-09T22:07:29;23.90;99.90
23755;DHT22;12057;52.042;6.830;2023-07-09T22:12:31;23.90;99.90
23755;DHT22;12057;52.042;6.830;2023-07-09T22:17:32;23.70;99.90
23755;DHT22;12057;52.042;6.830;2023-07-09T22:22:33;23.80;99.90
23755;DHT22;12057;52.042;6.830;2023-07-09T22:27:34;23.90;99.90
23755;DHT22;12057;52.042;6.830;2023-07-09T22:32:35;23.80;99.90
23755;DHT22;12057;52.042;6.830;2023-07-09T22:37:38;23.70;99.90
23755;DHT22;12057;52.042;6.830;2023-07-09T22:42:39;23.70;99.90
23755;DHT22;12057;52.042;6.830;2023-07-09T22:47:41;23.70;99.90
23755;DHT22;12057;52.042;6.830;2023-07-09T22:52:43;23.60;99.90
23755;DHT22;12057;52.042;6.830;2023-07-09T22:57:44;23.70;99.90
23755;DHT22;12057;52.042;6.830;2023-07-09T23:02:45;23.80;99.90
23755;DHT22;12057;52.042;6.830;2023-07-09T23:07:46;23.70;99.90
23755;DHT22;12057;52.042;6.830;2023-07-09T23:12:47;23.60;99.90
23755;DHT22;12057;52.042;6.830;2023-07-09T23:17:47;23.40;99.90
23755;DHT22;12057;52.042;6.830;2023-07-09T23:22:50;23.50;99.90
23755;DHT22;12057;52.042;6.830;2023-07-09T23:27:51;23.60;99.90
23755;DHT22;12057;52.042;6.830;2023-07-09T23:32:53;23.60;99.90
23755;DHT22;12057;52.042;6.830;2023-07-09T23:37:58;23.50;99.90
23755;DHT22;12057;52.042;6.830;2023-07-09T23:42:59;23.40;99.90
23755;DHT22;12057;52.042;6.830;2023-07-09T23:48:02;23.40;99.90
23755;DHT22;12057;52.042;6.830;2023-07-09T23:53:08;23.50;99.90
23755;DHT22;12057;52.042;6.830;2023-07-09T23:58:16;23.50;99.90
